Peace River Airport
CYPE : now visible

Airfield :











YOU CAN JOIN US ON...

 
LOGIN :

Register | Disclaimer

   EN    FR    IT 

 









Legend :    VFR   Marginal VFR   IFR   Intensive IFR   Very Intensive IFR
Visi :
Ceiling :
>= 8 km
>= 3000ft
5 to 8 km
1000 to 3000 ft
1500m to 5 km
500 to 1000 ft
800 to 1500m
200 to 500 ft
< 800m
< 200 ft
Symbols :   Thunderstorms  Fog  Heavy snow  Heavy precipitations  Wind > 20 kt







- Airport Elevation : 1873 ft
- IATA code : YPE


CYPE - Peace River

CURRENT METAR :
  • 211100Z 04006KT 15SM FEW250 04/M03 A2988 RMK CI1 CI TR SLP132

EXPIRED METARs :
  • 211000Z 03006KT 15SM SKC 05/M04 A2988 RMK FU ALF DIST NE+NW QUADS SLP130
  • 210900Z 03006KT 15SM SKC 05/M04 A2987 RMK SLP127
  • 210800Z 05006KT 15SM SKC 06/M05 A2986 RMK SLP125

TAF TAF CYPE
Valid from the 21 at 07:00 until the 21 at 19:00 UTC


210638Z 2107/2119 12008KT P6SM SKC
BECMG 2109/2111 08006KT
BECMG 2115/2117 12012KT RMK NXT FCST BY 211300Z
CZEG FIR / North America



MET'MAP, your aeronautical weather chart ! - Copyright ORBIFLY December 2007 - Disclaimer

ORBIFLY MET'MAP TEAM :

Programming & Development : Alexandra Zaïnal
Concept & Development : Baudouin d'Aumeries
Co-Development & Prog : Marc-Olivier Méhu
Technical & hardware support : Manuel Goepfert

Contact : metmap@orbifly.com




SOURCES & CREDITS :

   NOAA       Earth
Advisory